Bilhorod-Dnistrovs'kyy, Ukraine
Current Conditions -  °F | °C
As of 1:00 AM on Wednesday 26 Nov 2014 (Local Time) from UKOO Reporting Station
Light Snow Light Snow  
Wind Chill: 19°   Ceiling: 1400
Heat Index: 28°   Visibility: 6mi
Dew Point: 23°   Wind: 11mph
Humidity: 80%   Direction: 20°NNE
Pressure: 30.36"   Gusts: NA
Location:  46.2°N, 30.35°E
Report Text: UKOO 252200Z 02005MPS 9999 -SN OVC014 M02/M05 Q1028 34090060 NOSIG
Loading
Personal Weather Stations






























Interactive Weather Map New forecast layout! Learn more

10-Day Weather Forecast

Advertisements
Track Severe Weather on mobile